Airport View

Enter AWOS ICAO identifier for current METAR.

ex. KFNL

KEKS 131615Z AUTO 14010KT 10SM FEW039 OVC055 01/M09 A3027 RMK AO2

13 Dec 2017 16:32

Frequency: 119.85

Phone: 406-682-3835

Other Area AWOS: KBZN - KDLN - KWYS - KBTM

TAF KBZN 131139Z 1312/1418 VRB03KT P6SM SCT060 TEMPO 1318/1321 4SM -SHSN SCT030 OVC060 FM132100 VRB05KT 2SM -SN BKN015 OVC040 FM140200 VRB03KT P6SM SCT070